createdAt,value
2023-05-10T00:02:01.005Z,78.87
2023-05-10T00:04:28.488Z,78.89
2023-05-10T00:06:55.858Z,79.04
2023-05-10T00:09:22.497Z,79.32
2023-05-10T00:11:49.163Z,79.44
2023-05-10T00:14:15.765Z,79.47
2023-05-10T00:16:42.442Z,79.63
2023-05-10T00:19:09.204Z,79.85
2023-05-10T00:21:35.789Z,79.76
2023-05-10T00:24:02.393Z,80.01
2023-05-10T00:26:29.218Z,80.34
2023-05-10T00:28:55.901Z,80.09
2023-05-10T00:31:22.537Z,80.13
2023-05-10T00:33:49.120Z,80.23
2023-05-10T00:36:15.909Z,80.24
2023-05-10T00:38:42.584Z,80.35
2023-05-10T00:41:09.678Z,80.59
2023-05-10T00:43:36.835Z,80.71
2023-05-10T00:46:03.963Z,80.68
2023-05-10T00:48:30.911Z,81.08
2023-05-10T00:50:58.736Z,81.05
2023-05-10T00:53:25.721Z,81.18
2023-05-10T00:55:52.548Z,81.38
2023-05-10T00:58:19.315Z,81.59
2023-05-10T01:00:48.510Z,81.59
2023-05-10T01:03:16.427Z,81.77
2023-05-10T01:05:43.094Z,81.86
2023-05-10T01:08:09.896Z,81.94
2023-05-10T01:10:36.886Z,82.26
2023-05-10T01:13:04.202Z,82.12
2023-05-10T01:15:32.118Z,82.40
2023-05-10T01:17:59.313Z,82.41
2023-05-10T01:20:29.408Z,82.45
2023-05-10T01:23:36.982Z,82.68
2023-05-10T01:26:30.660Z,82.94
2023-05-10T01:29:00.763Z,82.75
2023-05-10T01:31:52.164Z,82.94
2023-05-10T01:34:24.810Z,82.92
2023-05-10T01:36:59.712Z,83.07
2023-05-10T01:39:37.779Z,83.06
2023-05-10T01:42:21.082Z,83.32
2023-05-10T01:44:52.851Z,83.33
2023-05-10T01:47:44.233Z,83.20
2023-05-10T01:50:20.943Z,83.23
2023-05-10T01:52:56.644Z,83.35
2023-05-10T01:55:27.095Z,83.38
2023-05-10T01:58:03.900Z,83.68
2023-05-10T02:00:32.346Z,83.62
2023-05-10T02:03:01.195Z,83.63
2023-05-10T02:05:30.206Z,83.80
2023-05-10T02:07:59.896Z,84.09
2023-05-10T02:10:27.415Z,84.11
2023-05-10T02:12:59.421Z,84.12
2023-05-10T02:15:28.604Z,84.46
2023-05-10T02:17:56.926Z,84.49
2023-05-10T02:20:25.434Z,84.44
2023-05-10T02:22:55.321Z,84.54
2023-05-10T02:25:24.389Z,84.69
2023-05-10T02:27:53.001Z,84.92
2023-05-10T02:30:20.281Z,84.85
2023-05-10T02:32:49.142Z,84.93
2023-05-10T02:35:16.623Z,84.72
2023-05-10T02:37:44.875Z,85.02
2023-05-10T02:40:12.593Z,85.12
2023-05-10T02:42:43.174Z,85.08
2023-05-10T02:45:14.182Z,85.22
2023-05-10T02:47:41.012Z,85.24
2023-05-10T02:50:08.505Z,85.43
2023-05-10T02:52:43.478Z,85.50
2023-05-10T02:55:12.779Z,85.53
2023-05-10T02:57:44.205Z,85.67
2023-05-10T03:00:11.433Z,85.68
2023-05-10T03:02:38.168Z,85.73
2023-05-10T03:05:07.237Z,85.76
2023-05-10T03:07:34.476Z,85.76
2023-05-10T03:10:01.662Z,85.99
2023-05-10T03:12:41.730Z,86.30
2023-05-10T03:15:17.144Z,86.34
2023-05-10T03:17:57.258Z,86.28
2023-05-10T03:20:32.527Z,86.30
2023-05-10T03:23:36.255Z,86.65
2023-05-10T03:26:05.924Z,86.37
2023-05-10T03:28:35.043Z,86.67
2023-05-10T03:31:03.621Z,86.67
2023-05-10T03:33:30.436Z,86.68
2023-05-10T03:35:57.126Z,86.67
2023-05-10T03:38:23.816Z,86.80
2023-05-10T03:40:54.016Z,86.90
2023-05-10T03:43:20.644Z,87.09
2023-05-10T03:45:47.882Z,87.28
2023-05-10T03:48:14.826Z,87.45
2023-05-10T03:50:41.538Z,87.52
2023-05-10T03:53:08.146Z,87.56
2023-05-10T03:55:37.129Z,87.76
2023-05-10T03:58:03.860Z,87.72
2023-05-10T04:00:31.190Z,87.74
2023-05-10T04:02:58.065Z,87.99
2023-05-10T04:05:25.062Z,88.20
2023-05-10T04:07:52.197Z,88.18
2023-05-10T04:10:22.299Z,88.19
2023-05-10T04:12:48.995Z,88.44
2023-05-10T04:15:15.879Z,88.49
2023-05-10T04:17:42.574Z,88.64
2023-05-10T04:20:09.818Z,88.81
2023-05-10T04:22:36.458Z,88.78
2023-05-10T04:25:03.184Z,88.99
2023-05-10T04:27:29.807Z,88.99
2023-05-10T04:29:56.440Z,89.12
2023-05-10T04:32:23.184Z,89.16
2023-05-10T04:34:51.818Z,89.53
2023-05-10T04:37:18.863Z,89.63
2023-05-10T04:39:45.506Z,89.73
2023-05-10T04:42:13.289Z,89.63
2023-05-10T04:44:39.995Z,89.77
2023-05-10T04:47:06.664Z,89.93
2023-05-10T04:49:33.493Z,89.99
2023-05-10T04:52:00.202Z,89.86
2023-05-10T04:54:26.867Z,90.04
2023-05-10T04:56:53.535Z,90.24
2023-05-10T04:59:20.143Z,90.32
2023-05-10T05:01:46.949Z,90.43
2023-05-10T05:04:13.615Z,90.53
2023-05-10T05:06:40.247Z,90.70
2023-05-10T05:09:06.906Z,90.54
2023-05-10T05:11:33.561Z,90.90
2023-05-10T05:14:00.621Z,90.71
2023-05-10T05:16:28.203Z,90.98
2023-05-10T05:18:54.912Z,90.91
2023-05-10T05:21:22.436Z,91.05
2023-05-10T05:23:49.192Z,91.34
2023-05-10T05:26:16.218Z,91.10
2023-05-10T05:28:43.198Z,91.19
2023-05-10T05:31:10.297Z,91.14
2023-05-10T05:33:37.647Z,91.29
2023-05-10T05:36:05.964Z,91.75
2023-05-10T05:38:33.006Z,91.43
2023-05-10T05:40:59.638Z,91.36
2023-05-10T05:43:26.365Z,91.31
2023-05-10T05:45:54.940Z,91.42
2023-05-10T05:48:21.913Z,91.34
2023-05-10T05:50:48.601Z,91.52
2023-05-10T05:53:15.469Z,91.27
2023-05-10T05:55:51.526Z,91.34
2023-05-10T05:58:18.168Z,91.26
2023-05-10T06:00:44.846Z,91.23
2023-05-10T06:03:11.702Z,91.27
2023-05-10T06:05:38.682Z,91.31
2023-05-10T06:08:05.459Z,90.99
2023-05-10T06:10:32.089Z,90.75
2023-05-10T06:12:58.839Z,90.52
2023-05-10T06:15:25.709Z,90.44
2023-05-10T06:17:52.384Z,90.22
2023-05-10T06:20:19.157Z,89.86
2023-05-10T06:22:45.870Z,90.20
2023-05-10T06:25:12.707Z,89.74
2023-05-10T06:27:39.297Z,89.82
2023-05-10T06:30:12.833Z,89.84
2023-05-10T06:32:39.907Z,89.83
2023-05-10T06:35:07.257Z,89.46
2023-05-10T06:37:34.219Z,89.61
2023-05-10T06:40:01.575Z,89.72
2023-05-10T06:42:28.416Z,89.79
2023-05-10T06:44:55.052Z,89.61
2023-05-10T06:47:21.800Z,89.59
2023-05-10T06:49:48.437Z,89.35
2023-05-10T06:52:15.076Z,89.54
2023-05-10T06:54:41.818Z,89.32
2023-05-10T06:57:16.054Z,89.06
2023-05-10T06:59:46.422Z,88.95
2023-05-10T07:02:13.499Z,88.87
2023-05-10T07:04:40.500Z,88.93
2023-05-10T07:07:07.234Z,88.67
2023-05-10T07:09:33.935Z,88.68
2023-05-10T07:12:00.741Z,88.59
2023-05-10T07:14:27.500Z,88.64
2023-05-10T07:16:54.384Z,88.31
2023-05-10T07:19:21.227Z,88.63
2023-05-10T07:21:48.544Z,88.61
2023-05-10T07:24:15.446Z,88.80
2023-05-10T07:26:42.090Z,88.55
2023-05-10T07:29:08.830Z,88.35
2023-05-10T07:31:35.473Z,87.93
2023-05-10T07:34:02.268Z,88.00
2023-05-10T07:36:28.926Z,87.68
2023-05-10T07:38:55.628Z,87.66
2023-05-10T07:41:23.494Z,87.13
2023-05-10T07:43:50.234Z,87.55
2023-05-10T07:46:17.797Z,87.54
2023-05-10T07:48:44.454Z,87.03
2023-05-10T07:51:11.684Z,86.84
2023-05-10T07:53:39.128Z,86.74
2023-05-10T07:56:33.270Z,86.35
2023-05-10T07:59:00.681Z,86.40
2023-05-10T08:01:33.241Z,86.11
2023-05-10T08:04:00.101Z,85.88
2023-05-10T08:06:31.056Z,85.90
2023-05-10T08:08:58.118Z,85.91
2023-05-10T08:11:26.281Z,85.93
2023-05-10T08:13:53.278Z,85.50
2023-05-10T08:16:20.571Z,85.70
2023-05-10T08:18:48.588Z,85.46
2023-05-10T08:21:15.931Z,85.42
2023-05-10T08:23:44.731Z,85.02
2023-05-10T08:26:11.827Z,85.19
2023-05-10T08:28:38.704Z,85.13
2023-05-10T08:31:05.991Z,84.01
2023-05-10T08:33:34.116Z,83.50
2023-05-10T08:36:00.868Z,83.13
2023-05-10T08:38:27.591Z,82.75
2023-05-10T08:40:59.735Z,83.08
2023-05-10T08:43:31.550Z,83.29
2023-05-10T08:46:01.630Z,83.08
2023-05-10T08:48:31.340Z,83.08
2023-05-10T08:51:00.161Z,82.82
2023-05-10T08:53:28.353Z,82.57
2023-05-10T08:55:56.687Z,82.46
2023-05-10T08:58:24.577Z,81.94
2023-05-10T09:00:54.639Z,81.83
2023-05-10T09:03:22.432Z,81.66
2023-05-10T09:05:50.627Z,82.09
2023-05-10T09:08:18.499Z,82.13
2023-05-10T09:10:48.116Z,80.88
2023-05-10T09:13:16.352Z,79.57
2023-05-10T09:15:44.459Z,79.76
2023-05-10T09:18:12.026Z,79.11
2023-05-10T09:20:38.880Z,78.85
2023-05-10T09:23:06.296Z,78.98
2023-05-10T09:25:36.069Z,78.86
2023-05-10T09:28:03.363Z,79.82
2023-05-10T09:30:32.277Z,80.96
2023-05-10T09:33:00.539Z,80.16
2023-05-10T09:35:30.156Z,79.42
2023-05-10T09:38:00.576Z,77.95
2023-05-10T09:40:28.899Z,76.92
2023-05-10T09:42:59.497Z,76.68
2023-05-10T09:45:28.387Z,76.57
2023-05-10T09:47:57.587Z,75.92
2023-05-10T09:50:24.908Z,76.09
2023-05-10T09:53:00.143Z,76.14
2023-05-10T09:55:27.702Z,76.24
2023-05-10T09:58:02.919Z,76.55
2023-05-10T10:00:35.808Z,77.23
2023-05-10T10:03:03.138Z,77.29
2023-05-10T10:05:33.852Z,75.70
2023-05-10T10:08:03.572Z,74.44
2023-05-10T10:10:30.499Z,74.14
2023-05-10T10:12:57.201Z,73.75
2023-05-10T10:15:24.782Z,74.03
2023-05-10T10:17:53.898Z,74.07
2023-05-10T10:20:22.059Z,74.06
2023-05-10T10:22:49.395Z,73.62
2023-05-10T10:25:18.511Z,73.75
2023-05-10T10:27:54.587Z,73.68
2023-05-10T10:30:28.483Z,73.01
2023-05-10T10:33:10.432Z,72.00
2023-05-10T10:35:47.564Z,71.21
2023-05-10T10:38:14.969Z,70.58
2023-05-10T10:40:41.736Z,70.56
2023-05-10T10:43:26.649Z,70.75
2023-05-10T10:46:15.407Z,69.50
2023-05-10T10:49:09.994Z,68.60
2023-05-10T10:51:40.614Z,67.78
2023-05-10T10:54:11.509Z,67.35
2023-05-10T10:56:38.474Z,67.79
2023-05-10T10:59:05.287Z,67.67
2023-05-10T11:01:36.493Z,67.75
2023-05-10T11:04:06.399Z,67.58
2023-05-10T11:06:35.274Z,67.68
2023-05-10T11:09:08.815Z,68.15
2023-05-10T11:11:36.518Z,67.32
2023-05-10T11:14:07.931Z,66.69
2023-05-10T11:16:45.232Z,66.29
2023-05-10T11:19:17.501Z,66.21
2023-05-10T11:21:49.681Z,66.07
2023-05-10T11:24:29.142Z,65.67
2023-05-10T11:26:56.059Z,65.60
2023-05-10T11:29:23.330Z,65.77
2023-05-10T11:31:51.124Z,65.78
2023-05-10T11:34:32.245Z,66.01
2023-05-10T11:36:59.342Z,66.05
2023-05-10T11:39:31.008Z,66.44
2023-05-10T11:41:58.549Z,66.89
2023-05-10T11:44:31.142Z,67.61
2023-05-10T11:47:01.088Z,68.10
2023-05-10T11:49:27.843Z,68.42
2023-05-10T11:51:54.529Z,68.67
2023-05-10T11:54:21.221Z,68.19
2023-05-10T11:56:47.888Z,67.43
2023-05-10T11:59:16.045Z,66.90
2023-05-10T12:01:42.842Z,66.62
2023-05-10T12:04:09.925Z,66.38
2023-05-10T12:06:42.187Z,66.47
2023-05-10T12:09:09.318Z,67.33
2023-05-10T12:11:42.527Z,67.96
2023-05-10T12:14:11.660Z,68.81
2023-05-10T12:16:38.370Z,69.27
2023-05-10T12:19:05.176Z,69.46
2023-05-10T12:21:32.355Z,69.57
2023-05-10T12:24:06.357Z,69.54
2023-05-10T12:26:36.339Z,69.46
2023-05-10T12:29:20.082Z,69.18
2023-05-10T12:31:55.545Z,69.16
2023-05-10T12:34:31.821Z,69.27
2023-05-10T12:36:59.558Z,69.29
2023-05-10T12:39:26.305Z,69.51
2023-05-10T12:41:53.705Z,69.79
2023-05-10T12:44:20.599Z,70.44
2023-05-10T12:46:47.271Z,70.63
2023-05-10T12:49:13.978Z,71.34
2023-05-10T12:51:40.852Z,71.66
2023-05-10T12:54:07.587Z,72.00
2023-05-10T12:56:34.218Z,72.10
2023-05-10T12:59:01.046Z,72.16
2023-05-10T13:01:27.961Z,72.20
2023-05-10T13:03:54.726Z,71.93
2023-05-10T13:06:21.537Z,72.04
2023-05-10T13:08:48.196Z,71.41
2023-05-10T13:11:17.633Z,71.38
2023-05-10T13:13:44.341Z,71.14
2023-05-10T13:16:11.087Z,71.15
2023-05-10T13:18:37.774Z,71.30
2023-05-10T13:21:06.391Z,70.95
2023-05-10T13:23:33.079Z,70.80
2023-05-10T13:25:59.772Z,70.69
2023-05-10T13:28:27.406Z,70.64
2023-05-10T13:30:54.081Z,70.41
2023-05-10T13:33:20.725Z,70.10
2023-05-10T13:35:47.407Z,69.83
2023-05-10T13:38:14.881Z,69.83
2023-05-10T13:40:41.631Z,69.49
2023-05-10T13:43:08.342Z,68.86
2023-05-10T13:45:35.012Z,68.10
2023-05-10T13:48:01.634Z,67.61
2023-05-10T13:50:28.317Z,67.01
2023-05-10T13:52:54.988Z,66.84
2023-05-10T13:55:21.651Z,66.98
2023-05-10T13:57:48.633Z,67.08
2023-05-10T14:00:16.180Z,65.93
2023-05-10T14:02:42.947Z,65.57
2023-05-10T14:05:09.828Z,65.27
2023-05-10T14:07:36.452Z,65.16
2023-05-10T14:10:03.864Z,64.94
2023-05-10T14:12:30.708Z,64.62
2023-05-10T14:14:59.091Z,64.36
2023-05-10T14:17:25.790Z,64.55
2023-05-10T14:19:53.933Z,64.88
2023-05-10T14:22:21.629Z,64.13
2023-05-10T14:24:48.404Z,63.40
2023-05-10T14:27:15.163Z,62.48
2023-05-10T14:29:41.846Z,62.49
2023-05-10T14:32:10.149Z,62.29
2023-05-10T14:34:36.953Z,62.56
2023-05-10T14:37:03.648Z,62.19
2023-05-10T14:39:31.195Z,61.87
2023-05-10T14:41:57.891Z,61.74
2023-05-10T14:44:26.039Z,62.04
2023-05-10T14:46:52.879Z,61.61
2023-05-10T14:49:19.534Z,61.15
2023-05-10T14:51:46.651Z,61.18
2023-05-10T14:54:13.295Z,61.12
2023-05-10T14:56:39.942Z,60.52
2023-05-10T14:59:06.560Z,59.86
2023-05-10T15:01:36.513Z,59.70
2023-05-10T15:04:03.918Z,59.71
2023-05-10T15:06:35.551Z,60.23
2023-05-10T15:09:04.483Z,59.86
2023-05-10T15:11:31.252Z,59.27
2023-05-10T15:13:57.884Z,58.35
2023-05-10T15:16:24.797Z,57.57
2023-05-10T15:18:51.781Z,57.81
2023-05-10T15:21:18.463Z,58.36
2023-05-10T15:23:45.324Z,59.49
2023-05-10T15:26:11.962Z,60.19
2023-05-10T15:28:38.588Z,61.24
2023-05-10T15:31:05.328Z,62.38
2023-05-10T15:33:31.956Z,63.46
2023-05-10T15:35:58.572Z,63.68
2023-05-10T15:38:25.268Z,62.71
2023-05-10T15:57:11.815Z,63.04
2023-05-10T15:59:58.796Z,62.81
2023-05-10T16:07:33.949Z,61.23
2023-05-10T16:15:27.977Z,59.00
2023-05-10T16:22:17.125Z,57.95
2023-05-10T16:25:05.654Z,57.24
2023-05-10T16:27:52.575Z,57.23
2023-05-10T16:30:39.595Z,56.69
2023-05-10T16:33:06.345Z,56.55
2023-05-10T16:36:17.925Z,56.37
2023-05-10T16:39:30.115Z,57.09
2023-05-10T16:50:18.631Z,58.08
2023-05-10T16:56:46.764Z,58.34
2023-05-10T17:03:49.418Z,57.68
2023-05-10T17:06:37.780Z,58.02
2023-05-10T17:13:40.939Z,59.09
2023-05-10T17:16:21.379Z,59.04
2023-05-10T17:19:15.505Z,59.11
2023-05-10T17:22:03.934Z,59.54
2023-05-10T17:24:33.329Z,59.98
2023-05-10T17:27:00.823Z,60.11
2023-05-10T17:29:28.826Z,60.35
2023-05-10T17:31:58.632Z,60.49
2023-05-10T17:43:12.839Z,60.84
2023-05-10T17:46:00.219Z,60.81
2023-05-10T17:52:49.992Z,60.84
2023-05-10T17:58:57.107Z,61.14
2023-05-10T18:01:24.742Z,61.12
2023-05-10T18:04:46.069Z,61.13
2023-05-10T18:07:12.872Z,61.20
2023-05-10T18:26:18.953Z,66.06
2023-05-10T18:37:43.383Z,68.79
2023-05-10T18:40:30.386Z,68.97
2023-05-10T18:44:23.288Z,69.50
2023-05-10T18:51:48.035Z,69.60
2023-05-10T18:54:15.459Z,70.40
2023-05-10T18:56:45.561Z,71.08
2023-05-10T18:59:13.061Z,71.50
2023-05-10T19:01:41.982Z,72.01
2023-05-10T19:04:09.088Z,72.21
2023-05-10T19:06:36.564Z,72.40
2023-05-10T19:12:54.969Z,72.82
2023-05-10T19:20:12.088Z,72.79
2023-05-10T19:24:00.538Z,73.45
2023-05-10T19:27:32.577Z,73.56
2023-05-10T19:30:01.723Z,73.51
2023-05-10T19:32:29.111Z,73.64
2023-05-10T19:34:58.677Z,74.47
2023-05-10T19:41:06.361Z,74.67
2023-05-10T19:43:34.605Z,75.11
2023-05-10T19:58:18.304Z,75.45
2023-05-10T20:04:33.976Z,75.70
2023-05-10T20:07:02.588Z,75.75
2023-05-10T20:09:30.244Z,75.92
2023-05-10T20:12:27.916Z,76.74
2023-05-10T20:22:26.427Z,76.48
2023-05-10T20:24:56.340Z,77.13
2023-05-10T20:40:04.732Z,77.79
2023-05-10T20:42:33.106Z,77.68
2023-05-10T20:45:32.319Z,78.38
2023-05-10T20:48:27.514Z,78.49
2023-05-10T20:55:41.108Z,78.79
2023-05-10T20:58:11.433Z,78.58
2023-05-10T21:00:49.078Z,78.96
2023-05-10T21:15:05.550Z,79.40
2023-05-10T21:18:00.301Z,79.66
2023-05-10T21:20:27.573Z,79.44
2023-05-10T21:27:25.905Z,79.94
2023-05-10T21:29:55.152Z,80.20
2023-05-10T21:32:23.635Z,80.48
2023-05-10T21:39:42.578Z,80.21
2023-05-10T21:42:58.732Z,80.57
2023-05-10T21:49:16.703Z,80.26
2023-05-10T21:52:03.853Z,80.47
2023-05-10T21:54:32.147Z,80.48
2023-05-10T21:56:58.759Z,80.67
2023-05-10T21:59:26.299Z,80.78
2023-05-10T22:05:34.493Z,80.35
2023-05-10T22:08:02.856Z,80.57
2023-05-10T22:10:31.613Z,80.65
2023-05-10T22:13:01.460Z,80.85
2023-05-10T22:15:28.237Z,80.89
2023-05-10T22:17:56.212Z,80.75
2023-05-10T22:20:22.889Z,80.92
2023-05-10T22:22:50.017Z,80.96
2023-05-10T22:25:17.110Z,81.03
2023-05-10T22:27:43.725Z,81.05
2023-05-10T22:30:10.758Z,81.33
2023-05-10T22:32:38.705Z,81.13
2023-05-10T22:35:06.404Z,81.21
2023-05-10T22:37:33.935Z,81.18
2023-05-10T22:40:02.530Z,81.37
2023-05-10T22:47:03.001Z,81.41
2023-05-10T22:49:37.921Z,81.68
2023-05-10T22:52:04.663Z,81.76
2023-05-10T22:54:33.796Z,81.92
2023-05-10T22:57:02.230Z,82.01
2023-05-10T22:59:30.038Z,82.01
2023-05-10T23:02:00.400Z,82.24
2023-05-10T23:04:27.654Z,82.23
2023-05-10T23:06:56.492Z,82.04
2023-05-10T23:09:23.687Z,82.22
2023-05-10T23:11:51.030Z,82.25
2023-05-10T23:14:19.167Z,82.34
2023-05-10T23:16:46.676Z,82.61
2023-05-10T23:19:16.704Z,82.75
2023-05-10T23:22:04.484Z,82.54
2023-05-10T23:29:27.382Z,82.92
2023-05-10T23:36:54.765Z,83.53
2023-05-10T23:39:22.938Z,83.56
2023-05-10T23:42:13.128Z,83.84
2023-05-10T23:45:00.484Z,83.78
2023-05-10T23:47:27.636Z,83.90
2023-05-10T23:49:54.998Z,84.22
2023-05-10T23:52:43.128Z,84.13
2023-05-10T23:55:30.436Z,84.15
2023-05-10T23:57:59.007Z,84.42
